Time;durP1;ratioP1;P1;durP2;ratioP2;P2;SDS_P1;SDS_P2;PMS_P1;PMS_P2;Temp;Humidity;BMP_temperature;BMP_pressure;BME280_temperature;BME280_humidity;BME280_pressure;Samples;Min_cycle;Max_cycle;Signal;HPM_P1;HPM_P2
2022/09/30 00:01:26;;;;;;;10.52;2.58;;;13.80;99.90;;;;;;4985613;28;20075;-70
2022/09/30 00:03:56;;;;;;;8.35;2.53;;;13.70;99.90;;;;;;4984929;28;20022;-74
2022/09/30 00:06:25;;;;;;;8.27;1.85;;;13.80;99.90;;;;;;4988224;28;20073;-72
2022/09/30 00:08:53;;;;;;;8.43;2.35;;;13.70;99.90;;;;;;4986841;28;20081;-70
2022/09/30 00:11:24;;;;;;;16.65;2.45;;;13.70;99.90;;;;;;4985094;28;20023;-71
2022/09/30 00:13:52;;;;;;;11.85;3.13;;;13.70;99.90;;;;;;4985549;28;20018;-71
2022/09/30 00:16:21;;;;;;;22.48;2.60;;;13.70;99.90;;;;;;4986456;28;20543;-71
2022/09/30 00:18:49;;;;;;;9.32;1.95;;;13.70;99.90;;;;;;4985508;28;20037;-72
2022/09/30 00:21:17;;;;;;;16.13;2.63;;;13.70;99.90;;;;;;4986810;28;20029;-69
2022/09/30 00:23:45;;;;;;;11.82;2.22;;;13.70;99.90;;;;;;4985768;28;20026;-70
2022/09/30 00:26:15;;;;;;;22.05;3.88;;;13.60;99.90;;;;;;4984823;28;20030;-70
2022/09/30 00:28:43;;;;;;;10.70;2.92;;;13.70;99.90;;;;;;4986189;28;20073;-77
2022/09/30 00:31:18;;;;;;;9.10;1.85;;;13.60;99.90;;;;;;4986195;28;20059;-72
2022/09/30 00:34:29;;;;;;;11.77;2.05;;;13.50;99.90;;;;;;4985793;28;20098;-71
2022/09/30 00:36:45;;;;;;;12.63;2.63;;;13.50;99.90;;;;;;4983567;28;20034;-72
2022/09/30 00:39:18;;;;;;;12.93;2.58;;;13.60;99.90;;;;;;4986198;28;20102;-72
2022/09/30 00:41:47;;;;;;;12.85;2.40;;;13.70;99.90;;;;;;4984104;28;20058;-73
2022/09/30 00:44:51;;;;;;;18.80;3.20;;;13.80;99.90;;;;;;4986177;28;20054;-71
2022/09/30 00:47:21;;;;;;;17.65;2.17;;;13.90;99.90;;;;;;4984284;28;20058;-70
2022/09/30 00:49:49;;;;;;;17.42;3.58;;;13.90;99.90;;;;;;4984708;28;20506;-72
2022/09/30 00:52:16;;;;;;;15.13;3.88;;;14.00;99.90;;;;;;4986196;28;20030;-72
2022/09/30 00:54:44;;;;;;;16.52;3.55;;;14.20;99.90;;;;;;4985866;28;20022;-71
2022/09/30 00:57:12;;;;;;;14.48;2.28;;;14.40;99.90;;;;;;4984920;28;20034;-72
2022/09/30 00:59:44;;;;;;;14.48;2.47;;;14.40;99.90;;;;;;4983988;28;20022;-70
2022/09/30 01:02:13;;;;;;;13.00;2.72;;;14.30;99.90;;;;;;4984650;28;20042;-70
2022/09/30 01:04:42;;;;;;;13.10;1.65;;;14.30;99.90;;;;;;4984739;28;20433;-71
2022/09/30 01:07:11;;;;;;;8.75;2.50;;;14.20;99.90;;;;;;4984693;28;20084;-73
2022/09/30 01:09:40;;;;;;;12.93;2.15;;;14.10;99.90;;;;;;4983952;28;20050;-67
2022/09/30 01:12:19;;;;;;;8.88;2.55;;;14.10;99.90;;;;;;4984900;28;20035;-68
2022/09/30 01:14:52;;;;;;;11.77;1.80;;;14.10;99.90;;;;;;4975220;28;20038;-73
2022/09/30 01:17:53;;;;;;;9.38;2.28;;;14.10;99.90;;;;;;4975394;28;20564;-69
2022/09/30 01:20:57;;;;;;;11.45;1.98;;;14.20;99.90;;;;;;4975269;28;20399;-68
2022/09/30 01:23:50;;;;;;;16.40;2.45;;;14.40;99.90;;;;;;4975333;28;20395;-69
2022/09/30 01:26:58;;;;;;;5.70;1.30;;;14.50;99.90;;;;;;4975500;28;20102;-69
2022/09/30 01:29:50;;;;;;;12.27;2.60;;;14.60;99.90;;;;;;4976668;28;20038;-69
2022/09/30 01:32:26;;;;;;;12.18;1.95;;;14.50;99.90;;;;;;4994921;28;20023;-69
2022/09/30 01:34:59;;;;;;;10.88;2.40;;;14.50;99.90;;;;;;4994892;28;20097;-71
2022/09/30 01:37:54;;;;;;;8.70;1.77;;;14.60;99.90;;;;;;4995066;28;20081;-73
2022/09/30 01:40:40;;;;;;;10.60;2.60;;;14.70;99.90;;;;;;4994966;28;20022;-68
2022/09/30 01:43:32;;;;;;;8.20;2.15;;;14.70;99.90;;;;;;4994853;28;20038;-68
2022/09/30 01:46:30;;;;;;;12.05;2.45;;;14.90;99.90;;;;;;4994704;28;20034;-72
2022/09/30 01:49:00;;;;;;;12.10;3.30;;;14.90;99.90;;;;;;4994207;28;20027;-71
2022/09/30 01:51:30;;;;;;;6.72;2.13;;;15.00;99.90;;;;;;4994095;28;20026;-69
2022/09/30 01:54:25;;;;;;;13.63;2.20;;;15.20;99.90;;;;;;4994397;28;20026;-73
2022/09/30 01:57:02;;;;;;;11.35;2.22;;;15.20;99.90;;;;;;4991724;28;20045;-72
2022/09/30 01:59:50;;;;;;;15.23;2.30;;;15.20;99.90;;;;;;4994371;28;20034;-67
2022/09/30 02:02:31;;;;;;;15.65;2.22;;;15.30;99.90;;;;;;4994241;28;20046;-68
2022/09/30 02:05:27;;;;;;;13.30;2.00;;;15.50;99.90;;;;;;4986583;28;20373;-68
2022/09/30 02:08:12;;;;;;;11.10;2.45;;;15.60;99.90;;;;;;4974450;28;20498;-72
2022/09/30 02:10:57;;;;;;;12.32;2.85;;;15.60;99.90;;;;;;4992950;28;20097;-72
2022/09/30 02:13:55;;;;;;;13.60;2.33;;;15.40;99.90;;;;;;4986670;28;20023;-71
2022/09/30 02:16:45;;;;;;;11.07;2.53;;;15.20;99.90;;;;;;4982442;28;20034;-72
2022/09/30 02:19:37;;;;;;;13.95;3.03;;;15.10;99.90;;;;;;4984283;28;20019;-71
2022/09/30 02:22:21;;;;;;;8.73;2.38;;;15.00;99.90;;;;;;4984859;28;20030;-71
2022/09/30 02:24:54;;;;;;;16.95;1.83;;;14.90;99.90;;;;;;4988568;28;20022;-71
2022/09/30 02:27:32;;;;;;;11.38;2.55;;;14.90;99.90;;;;;;4991282;28;20495;-71
2022/09/30 02:30:03;;;;;;;9.70;2.42;;;14.90;99.90;;;;;;4989589;28;20070;-71
2022/09/30 02:32:38;;;;;;;18.67;3.05;;;14.90;99.90;;;;;;4993242;28;20045;-71
2022/09/30 02:35:23;;;;;;;17.67;2.47;;;14.80;99.90;;;;;;4989353;28;20038;-72
2022/09/30 02:37:59;;;;;;;8.52;1.75;;;14.70;99.90;;;;;;4983333;28;20038;-71
2022/09/30 02:40:40;;;;;;;8.45;1.92;;;14.60;99.90;;;;;;4981581;28;20085;-70
2022/09/30 02:43:09;;;;;;;15.30;2.67;;;14.60;99.90;;;;;;4982938;28;20492;-71
2022/09/30 02:46:22;;;;;;;11.20;1.77;;;14.20;99.90;;;;;;4983192;28;20030;-70
2022/09/30 02:49:07;;;;;;;6.07;1.48;;;13.90;99.90;;;;;;4983080;28;20023;-71
2022/09/30 02:51:40;;;;;;;17.48;2.40;;;13.80;99.90;;;;;;4983676;28;20023;-71
2022/09/30 02:54:31;;;;;;;13.02;2.63;;;13.70;99.90;;;;;;4982779;28;20142;-72
2022/09/30 02:57:17;;;;;;;12.68;2.53;;;13.80;99.90;;;;;;4992661;28;20356;-71
2022/09/30 02:59:50;;;;;;;;;;;13.90;99.90;;;;;;4994690;28;20023;-71
2022/09/30 03:02:18;;;;;;;15.57;2.85;;;14.00;99.90;;;;;;4993790;28;19940;-71
2022/09/30 03:04:48;;;;;;;14.63;3.10;;;14.10;99.90;;;;;;4993966;28;20034;-71
2022/09/30 03:07:15;;;;;;;10.75;3.15;;;14.20;99.90;;;;;;4993573;28;20054;-71
2022/09/30 03:09:42;;;;;;;15.70;4.13;;;14.20;99.90;;;;;;4993754;28;20026;-72
2022/09/30 03:12:36;;;;;;;17.65;2.63;;;14.10;99.90;;;;;;4993443;28;20554;-71
2022/09/30 03:15:22;;;;;;;18.67;3.28;;;13.90;99.90;;;;;;4993943;28;20062;-71
2022/09/30 03:17:58;;;;;;;14.45;2.25;;;14.00;99.90;;;;;;4993555;28;20125;-71
2022/09/30 03:20:44;;;;;;;12.90;2.28;;;14.10;99.90;;;;;;4994522;28;20109;-71
2022/09/30 03:23:34;;;;;;;8.68;1.63;;;14.10;99.90;;;;;;4997636;28;20038;-71
2022/09/30 03:26:27;;;;;;;13.05;2.90;;;14.00;99.90;;;;;;4997377;28;20438;-71
2022/09/30 03:29:19;;;;;;;15.05;2.30;;;14.10;99.90;;;;;;4997705;28;20018;-71
2022/09/30 03:32:11;;;;;;;9.40;1.60;;;14.40;99.90;;;;;;4997283;28;20459;-71
2022/09/30 03:34:58;;;;;;;12.32;2.22;;;14.50;99.90;;;;;;4997614;28;20480;-71
2022/09/30 03:37:44;;;;;;;10.13;1.85;;;14.60;99.90;;;;;;4978104;28;20054;-71
2022/09/30 03:40:43;;;;;;;10.25;2.95;;;14.60;99.90;;;;;;4977964;28;20450;-71
2022/09/30 03:43:28;;;;;;;12.80;2.47;;;14.60;99.90;;;;;;4977711;28;20101;-71
2022/09/30 03:46:02;;;;;;;10.57;1.55;;;14.50;99.90;;;;;;4977556;28;20015;-72
2022/09/30 03:48:30;;;;;;;13.80;2.60;;;14.50;99.90;;;;;;4978314;28;20019;-71
2022/09/30 03:51:00;;;;;;;11.85;2.58;;;14.40;99.90;;;;;;4977417;28;20035;-79
2022/09/30 03:53:28;;;;;;;10.98;3.40;;;14.40;99.90;;;;;;4977723;28;20015;-71
2022/09/30 03:55:56;;;;;;;8.95;1.73;;;14.30;99.90;;;;;;4977862;28;20454;-71
2022/09/30 03:58:24;;;;;;;14.07;2.38;;;14.20;99.90;;;;;;4995656;28;20389;-71
2022/09/30 04:00:55;;;;;;;10.95;2.25;;;14.30;99.90;;;;;;4996585;28;20038;-71
2022/09/30 04:03:26;;;;;;;11.73;2.22;;;14.30;99.90;;;;;;4996617;28;20023;-71
2022/09/30 04:05:54;;;;;;;11.07;2.90;;;14.60;99.90;;;;;;4996472;28;20786;-71
2022/09/30 04:08:22;;;;;;;20.38;2.28;;;14.70;99.90;;;;;;4996355;28;20041;-71
2022/09/30 04:10:50;;;;;;;12.07;2.35;;;14.80;99.90;;;;;;4996660;28;20034;-78
2022/09/30 04:13:17;;;;;;;11.68;2.10;;;14.80;99.90;;;;;;4996482;28;20029;-76
2022/09/30 04:15:52;;;;;;;24.20;3.95;;;14.80;99.90;;;;;;4996368;28;20054;-76
2022/09/30 04:18:20;;;;;;;17.88;3.15;;;14.70;99.90;;;;;;4996252;28;20022;-73
2022/09/30 04:20:51;;;;;;;7.80;1.95;;;14.80;99.90;;;;;;4996112;28;20034;-73
2022/09/30 04:23:18;;;;;;;22.77;2.50;;;14.70;99.90;;;;;;4996476;28;20038;-74
2022/09/30 04:25:55;;;;;;;12.88;2.42;;;14.90;99.90;;;;;;5011288;28;20026;-72
2022/09/30 04:28:23;;;;;;;12.00;2.35;;;15.00;99.90;;;;;;4996093;28;20031;-71
2022/09/30 04:30:51;;;;;;;9.13;2.65;;;14.80;99.90;;;;;;4995506;28;20046;-71
2022/09/30 04:33:19;;;;;;;8.90;2.22;;;14.60;99.90;;;;;;4994397;28;20208;-74
2022/09/30 04:35:47;;;;;;;7.28;1.30;;;14.50;99.90;;;;;;4996004;28;20464;-72
2022/09/30 04:38:14;;;;;;;7.32;1.77;;;14.40;99.90;;;;;;4992942;28;20030;-70
2022/09/30 04:40:42;;;;;;;10.52;1.80;;;14.50;99.90;;;;;;4996123;28;20356;-71
2022/09/30 04:43:10;;;;;;;7.05;1.52;;;14.60;99.90;;;;;;4995460;28;20506;-69
2022/09/30 04:45:42;;;;;;;10.18;2.78;;;14.70;99.90;;;;;;4994559;28;20027;-70
2022/09/30 04:48:10;;;;;;;12.40;1.75;;;14.90;99.90;;;;;;4993887;28;20056;-70
2022/09/30 04:50:37;;;;;;;10.38;1.42;;;15.00;99.90;;;;;;4993654;28;20490;-70
2022/09/30 04:53:05;;;;;;;4.90;1.10;;;15.10;99.90;;;;;;4994012;28;20018;-71
2022/09/30 04:55:33;;;;;;;11.13;1.80;;;15.20;99.90;;;;;;4992957;28;20061;-70
2022/09/30 04:58:01;;;;;;;4.78;0.77;;;15.30;99.90;;;;;;4994128;28;20137;-70
2022/09/30 05:00:29;;;;;;;7.05;1.73;;;15.20;99.90;;;;;;4993168;28;20022;-70
2022/09/30 05:02:57;;;;;;;10.45;1.13;;;15.20;99.90;;;;;;4993294;28;20494;-70
2022/09/30 05:05:25;;;;;;;4.82;1.00;;;15.30;99.90;;;;;;4993442;28;20037;-70
2022/09/30 05:07:53;;;;;;;7.80;0.90;;;15.20;99.90;;;;;;4993462;28;20293;-70
2022/09/30 05:10:20;;;;;;;4.95;0.80;;;15.20;99.90;;;;;;4993240;28;20019;-70
2022/09/30 05:12:51;;;;;;;3.88;0.70;;;15.20;99.90;;;;;;4993601;28;20057;-70
2022/09/30 05:15:19;;;;;;;5.20;0.90;;;15.30;99.90;;;;;;4994666;28;20403;-70
2022/09/30 05:17:49;;;;;;;5.85;1.33;;;15.40;99.90;;;;;;4995478;28;20479;-69
2022/09/30 05:20:17;;;;;;;2.13;1.02;;;15.50;99.90;;;;;;4995412;28;20031;-69
2022/09/30 05:22:46;;;;;;;5.82;1.58;;;15.50;99.90;;;;;;4995399;28;20113;-69
2022/09/30 05:25:14;;;;;;;7.85;1.58;;;15.60;99.90;;;;;;4995150;28;20019;-70
2022/09/30 05:27:41;;;;;;;4.07;0.90;;;15.60;99.90;;;;;;4995143;28;20407;-69
2022/09/30 05:30:09;;;;;;;4.07;1.42;;;15.70;99.90;;;;;;4994834;28;20048;-70
2022/09/30 05:32:38;;;;;;;4.38;1.35;;;15.70;99.90;;;;;;4995167;28;20057;-70
2022/09/30 05:35:06;;;;;;;2.58;1.13;;;15.70;99.90;;;;;;4995169;28;20027;-70
2022/09/30 05:37:34;;;;;;;4.93;1.52;;;15.70;99.90;;;;;;4995200;28;20037;-71
2022/09/30 05:40:02;;;;;;;5.30;0.73;;;15.70;99.90;;;;;;4995226;28;20093;-71
2022/09/30 05:42:34;;;;;;;5.53;1.05;;;15.40;99.90;;;;;;4995077;28;20624;-70
2022/09/30 05:45:04;;;;;;;6.38;0.95;;;15.20;99.90;;;;;;4994475;28;20418;-70
2022/09/30 05:47:32;;;;;;;4.90;1.13;;;15.00;99.90;;;;;;4995068;28;20468;-71
2022/09/30 05:50:00;;;;;;;4.32;0.75;;;15.00;99.90;;;;;;4991264;28;20035;-71
2022/09/30 05:52:28;;;;;;;4.15;1.23;;;15.00;99.90;;;;;;4984251;28;20384;-70
2022/09/30 05:54:59;;;;;;;7.53;2.15;;;15.00;99.90;;;;;;4983800;28;20056;-71
2022/09/30 05:57:30;;;;;;;6.03;1.52;;;15.10;99.90;;;;;;4983437;28;20460;-72
2022/09/30 05:59:58;;;;;;;7.05;1.23;;;15.20;99.90;;;;;;4983218;28;20037;-70
2022/09/30 06:02:25;;;;;;;4.20;1.48;;;15.20;99.90;;;;;;4983814;28;20058;-70
2022/09/30 06:04:53;;;;;;;4.57;1.45;;;15.20;99.90;;;;;;4985356;28;20367;-71
2022/09/30 06:07:21;;;;;;;12.20;1.20;;;15.30;99.90;;;;;;4984371;28;20073;-70
2022/09/30 06:09:49;;;;;;;10.27;1.30;;;15.30;99.90;;;;;;4983256;28;20033;-70
2022/09/30 06:12:17;;;;;;;7.53;1.15;;;15.40;99.90;;;;;;4980351;28;20034;-71
2022/09/30 06:14:45;;;;;;;5.85;1.15;;;15.40;99.90;;;;;;4992914;28;20015;-71
2022/09/30 06:17:12;;;;;;;5.18;0.70;;;15.50;99.90;;;;;;4990842;28;20052;-71
2022/09/30 06:19:40;;;;;;;3.78;1.02;;;15.40;99.90;;;;;;4993266;28;20092;-71
2022/09/30 06:22:09;;;;;;;4.50;1.08;;;15.30;99.90;;;;;;4993031;28;20494;-71
2022/09/30 06:24:37;;;;;;;9.00;1.20;;;15.20;99.90;;;;;;4975594;28;20030;-69
2022/09/30 06:27:05;;;;;;;5.30;0.85;;;15.10;99.90;;;;;;4992978;28;20471;-70
2022/09/30 06:29:33;;;;;;;3.80;0.80;;;15.00;99.90;;;;;;4990597;28;20479;-71
2022/09/30 06:32:01;;;;;;;4.35;0.60;;;14.80;99.90;;;;;;4992883;28;20030;-70
2022/09/30 06:34:28;;;;;;;5.10;0.82;;;14.70;99.90;;;;;;4993657;28;20022;-70
2022/09/30 06:36:56;;;;;;;9.93;1.23;;;14.70;99.90;;;;;;4992797;28;20027;-71
2022/09/30 06:39:26;;;;;;;6.70;0.98;;;14.70;99.90;;;;;;4994212;28;20041;-70
2022/09/30 06:41:55;;;;;;;6.22;1.17;;;14.70;99.90;;;;;;4994022;28;20058;-70
2022/09/30 06:44:22;;;;;;;5.85;1.35;;;14.70;99.90;;;;;;4992812;28;20022;-70
2022/09/30 06:46:49;;;;;;;4.10;1.35;;;14.60;99.90;;;;;;4993907;28;20034;-70
2022/09/30 06:49:17;;;;;;;7.60;1.98;;;14.60;99.90;;;;;;4994112;28;20472;-71
2022/09/30 06:51:44;;;;;;;7.18;1.35;;;14.60;99.90;;;;;;4993536;28;20032;-71
2022/09/30 06:54:12;;;;;;;6.82;1.45;;;14.60;99.90;;;;;;4993852;28;20145;-70
2022/09/30 06:56:40;;;;;;;13.07;1.35;;;14.50;99.90;;;;;;4997387;28;20464;-70
2022/09/30 06:59:07;;;;;;;6.03;1.85;;;14.40;99.90;;;;;;4997972;28;20124;-71
2022/09/30 07:01:34;;;;;;;6.47;1.85;;;14.40;99.90;;;;;;4998120;28;20137;-71
2022/09/30 07:04:08;;;;;;;4.40;1.10;;;14.30;99.90;;;;;;4997915;28;20486;-71
2022/09/30 07:06:37;;;;;;;5.07;1.42;;;14.20;99.90;;;;;;4997135;28;20023;-71
2022/09/30 07:09:06;;;;;;;5.88;1.25;;;14.10;99.90;;;;;;4996474;28;20352;-71
2022/09/30 07:11:33;;;;;;;9.82;1.45;;;14.00;99.90;;;;;;4997212;28;20018;-71
2022/09/30 07:14:00;;;;;;;4.75;1.67;;;13.90;99.90;;;;;;4997228;28;20014;-70
2022/09/30 07:16:28;;;;;;;4.90;1.30;;;13.90;99.90;;;;;;4997058;28;20033;-71
2022/09/30 07:18:57;;;;;;;5.55;1.67;;;13.80;99.90;;;;;;4997156;28;20022;-72
2022/09/30 07:21:24;;;;;;;6.78;2.30;;;13.70;99.90;;;;;;4997522;28;20022;-74
2022/09/30 07:23:52;;;;;;;9.77;1.90;;;13.70;99.90;;;;;;4997746;28;20034;-74
2022/09/30 07:26:21;;;;;;;6.22;1.42;;;13.70;99.90;;;;;;4997368;28;20440;-74
2022/09/30 07:28:50;;;;;;;9.43;1.63;;;13.70;99.90;;;;;;4997510;28;20411;-74
2022/09/30 07:31:21;;;;;;;4.70;0.88;;;13.70;99.90;;;;;;4997287;28;20530;-74
2022/09/30 07:33:52;;;;;;;7.63;1.65;;;13.70;99.90;;;;;;4997308;28;20062;-74
2022/09/30 07:36:26;;;;;;;4.45;1.33;;;13.70;99.90;;;;;;4997101;28;20488;-73
2022/09/30 07:38:54;;;;;;;3.55;0.88;;;13.60;99.90;;;;;;4997383;28;20026;-74
2022/09/30 07:41:26;;;;;;;7.22;1.55;;;13.60;99.90;;;;;;4995869;28;20138;-73
2022/09/30 07:43:55;;;;;;;2.53;0.95;;;13.60;99.90;;;;;;4996698;28;20029;-74
2022/09/30 07:46:27;;;;;;;5.18;0.60;;;13.60;99.90;;;;;;4996789;28;20015;-73
2022/09/30 07:48:59;;;;;;;6.10;1.52;;;13.60;99.90;;;;;;4996713;28;20030;-74
2022/09/30 07:51:33;;;;;;;3.60;1.00;;;13.60;99.90;;;;;;4995689;28;20049;-74
2022/09/30 07:54:04;;;;;;;5.00;1.35;;;13.50;99.90;;;;;;4993401;28;20030;-76
2022/09/30 07:56:33;;;;;;;10.27;1.42;;;13.50;99.90;;;;;;4994956;28;20486;-74
2022/09/30 07:59:02;;;;;;;12.73;1.92;;;13.50;99.90;;;;;;4994879;28;20069;-74
2022/09/30 08:01:31;;;;;;;5.93;1.30;;;13.60;99.90;;;;;;4992311;28;20030;-74
2022/09/30 08:04:01;;;;;;;7.10;0.95;;;13.60;99.90;;;;;;4993706;28;20459;-74
2022/09/30 08:06:30;;;;;;;10.95;3.28;;;13.60;99.90;;;;;;4993097;28;20379;-74
2022/09/30 08:09:05;;;;;;;8.75;2.38;;;13.60;99.90;;;;;;4995724;28;20356;-74
2022/09/30 08:11:34;;;;;;;8.68;1.80;;;13.50;99.90;;;;;;4983659;28;20034;-72
2022/09/30 08:14:03;;;;;;;7.78;1.70;;;13.50;99.90;;;;;;4990318;28;20084;-72
2022/09/30 08:16:31;;;;;;;5.75;1.58;;;13.40;99.90;;;;;;4989064;28;20045;-72
2022/09/30 08:19:00;;;;;;;8.20;1.52;;;13.40;99.90;;;;;;4991320;28;20037;-75
2022/09/30 08:21:29;;;;;;;11.32;2.40;;;13.40;99.90;;;;;;4977755;28;20491;-75
2022/09/30 08:23:58;;;;;;;12.80;2.88;;;13.40;99.90;;;;;;4993937;28;20030;-72
2022/09/30 08:26:25;;;;;;;7.97;2.03;;;13.40;99.90;;;;;;4994634;28;20430;-75
2022/09/30 08:28:53;;;;;;;10.15;2.63;;;13.40;99.90;;;;;;4994276;28;20141;-75
2022/09/30 08:31:23;;;;;;;10.20;2.63;;;13.40;99.90;;;;;;4994424;28;20074;-74
2022/09/30 08:33:51;;;;;;;14.43;2.90;;;13.20;99.90;;;;;;4989292;28;20472;-74
2022/09/30 08:36:24;;;;;;;17.00;2.70;;;13.20;99.90;;;;;;4988598;28;20041;-75
2022/09/30 08:38:53;;;;;;;12.05;2.58;;;13.00;99.90;;;;;;4983074;28;20027;-74
2022/09/30 08:41:38;;;;;;;10.95;2.42;;;13.00;99.90;;;;;;4976438;28;20117;-73
2022/09/30 08:44:35;;;;;;;12.35;3.15;;;13.00;99.90;;;;;;4976360;28;20059;-74
2022/09/30 08:47:22;;;;;;;11.02;2.78;;;13.10;99.90;;;;;;4975375;28;20023;-73
2022/09/30 08:50:03;;;;;;;22.95;4.05;;;13.00;99.90;;;;;;4984728;28;20038;-74
2022/09/30 08:52:49;;;;;;;27.38;4.22;;;13.10;99.90;;;;;;4994816;28;20019;-74
2022/09/30 08:55:26;;;;;;;24.40;6.78;;;13.10;99.90;;;;;;4995585;28;20018;-73
2022/09/30 08:57:56;;;;;;;24.23;4.60;;;13.10;99.90;;;;;;4995319;28;20026;-73
2022/09/30 09:00:24;;;;;;;22.35;4.82;;;13.10;99.90;;;;;;4995379;28;20037;-74
2022/09/30 09:02:56;;;;;;;28.85;4.80;;;13.10;99.90;;;;;;4994746;28;20034;-74
2022/09/30 09:05:38;;;;;;;19.00;3.17;;;13.10;99.90;;;;;;4995473;28;20106;-73
2022/09/30 09:08:14;;;;;;;20.30;4.97;;;13.10;99.90;;;;;;4979921;28;20121;-73
2022/09/30 09:11:11;;;;;;;24.13;4.85;;;13.10;99.90;;;;;;4994243;28;20100;-72
2022/09/30 09:13:48;;;;;;;26.50;4.53;;;13.10;99.90;;;;;;4993407;28;20457;-73
2022/09/30 09:16:42;;;;;;;25.15;5.43;;;13.10;99.90;;;;;;4994306;28;20526;-75
2022/09/30 09:19:14;;;;;;;23.85;4.53;;;13.10;99.90;;;;;;4965856;28;20038;-75
2022/09/30 09:21:52;;;;;;;31.67;5.15;;;13.10;99.90;;;;;;4984152;28;20034;-74
2022/09/30 09:24:26;;;;;;;18.35;3.78;;;13.10;99.90;;;;;;4980931;28;20022;-74
2022/09/30 09:26:57;;;;;;;26.58;5.18;;;13.10;99.90;;;;;;4983375;28;20122;-73
2022/09/30 09:29:38;;;;;;;19.42;3.83;;;13.10;99.90;;;;;;4980936;28;20115;-74
2022/09/30 09:32:17;;;;;;;34.90;4.53;;;13.20;99.90;;;;;;4976646;28;20365;-74
2022/09/30 09:34:50;;;;;;;15.32;3.28;;;13.20;99.90;;;;;;4978741;28;20472;-73
2022/09/30 09:40:40;;;;;;;17.45;2.90;;;13.20;99.90;;;;;;4975532;28;20041;-74
2022/09/30 09:43:32;;;;;;;19.98;3.83;;;13.20;99.90;;;;;;4980868;28;20113;-73
2022/09/30 09:46:26;;;;;;;26.48;4.40;;;13.20;99.90;;;;;;4981236;28;20019;-74
2022/09/30 09:49:20;;;;;;;26.48;5.18;;;13.10;99.90;;;;;;4982129;28;20058;-74
2022/09/30 09:51:57;;;;;;;21.70;3.78;;;13.10;99.90;;;;;;4977115;28;20519;-75
2022/09/30 09:54:27;;;;;;;31.33;4.60;;;13.10;99.90;;;;;;4982821;28;20029;-74
2022/09/30 09:56:55;;;;;;;18.80;4.38;;;13.10;99.90;;;;;;4983670;28;20419;-73
2022/09/30 09:59:22;;;;;;;25.88;4.10;;;13.10;99.90;;;;;;4982050;28;20064;-72
2022/09/30 10:01:55;;;;;;;30.60;4.97;;;13.10;99.90;;;;;;4981725;28;20117;-74
2022/09/30 10:04:25;;;;;;;15.45;4.22;;;13.20;99.90;;;;;;4981892;28;20018;-73
2022/09/30 10:06:58;;;;;;;18.35;4.22;;;13.10;99.90;;;;;;4983656;28;20046;-73
2022/09/30 10:09:34;;;;;;;19.73;3.67;;;13.10;99.90;;;;;;4985276;28;21642;-74
2022/09/30 10:12:07;;;;;;;;;;;13.10;99.90;;;;;;4982530;28;20036;-74
2022/09/30 10:14:52;;;;;;;22.52;3.40;;;13.10;99.90;;;;;;4984704;28;19909;-74
2022/09/30 10:17:28;;;;;;;18.77;4.00;;;13.10;99.90;;;;;;4981392;28;20022;-74
2022/09/30 10:19:58;;;;;;;;;;;13.10;99.90;;;;;;4985152;28;20435;-74
2022/09/30 10:22:31;;;;;;;17.83;3.85;;;13.10;99.90;;;;;;4982257;28;19937;-74
2022/09/30 10:25:19;;;;;;;26.58;4.22;;;13.10;99.90;;;;;;4984837;28;20487;-73
2022/09/30 10:27:59;;;;;;;15.73;4.18;;;13.10;99.90;;;;;;4982435;28;20093;-74
2022/09/30 10:30:48;;;;;;;20.45;4.68;;;13.00;99.90;;;;;;4982016;28;20062;-72
2022/09/30 10:33:25;;;;;;;16.75;3.63;;;13.00;99.90;;;;;;4982132;28;20073;-72
2022/09/30 10:36:13;;;;;;;26.00;4.78;;;13.00;99.90;;;;;;4983117;28;20052;-72
2022/09/30 10:39:05;;;;;;;19.95;4.78;;;13.00;99.90;;;;;;4983082;28;20027;-72
2022/09/30 10:41:36;;;;;;;11.80;3.13;;;13.00;99.90;;;;;;4983152;28;20030;-72
2022/09/30 10:44:16;;;;;;;20.55;4.50;;;13.10;99.90;;;;;;4981277;28;20068;-73
2022/09/30 10:46:46;;;;;;;19.67;3.42;;;13.10;99.90;;;;;;4983793;28;20022;-71
2022/09/30 10:49:44;;;;;;;24.77;6.45;;;13.10;99.90;;;;;;4983126;28;20046;-73
2022/09/30 10:52:38;;;;;;;11.88;3.55;;;13.10;99.90;;;;;;4981696;28;20416;-72
2022/09/30 10:55:24;;;;;;;21.92;5.90;;;13.10;99.90;;;;;;4981919;28;20368;-73
2022/09/30 10:57:52;;;;;;;;;;;13.10;99.90;;;;;;4983552;28;20019;-73
2022/09/30 11:00:24;;;;;;;15.95;3.30;;;13.10;99.90;;;;;;4981023;28;19910;-74
2022/09/30 11:03:05;;;;;;;18.90;4.32;;;13.10;99.90;;;;;;4974930;28;20027;-73
2022/09/30 11:05:40;;;;;;;27.08;4.78;;;13.00;99.90;;;;;;4979394;28;20058;-73
2022/09/30 11:08:26;;;;;;;13.70;4.15;;;13.00;99.90;;;;;;4977699;28;20053;-73
2022/09/30 11:11:09;;;;;;;25.48;4.55;;;13.00;99.90;;;;;;4981935;28;20022;-73
2022/09/30 11:13:58;;;;;;;12.50;3.38;;;12.90;99.90;;;;;;4987892;28;20026;-72
2022/09/30 11:17:07;;;;;;;16.92;3.47;;;12.90;99.90;;;;;;4991739;28;20022;-73
2022/09/30 11:19:53;;;;;;;17.23;3.42;;;12.90;99.90;;;;;;4989680;28;20028;-73
2022/09/30 11:22:27;;;;;;;24.27;3.63;;;12.90;99.90;;;;;;4988571;28;20054;-74
2022/09/30 11:24:56;;;;;;;21.38;3.58;;;12.90;99.90;;;;;;4989252;28;20018;-73
2022/09/30 11:27:29;;;;;;;11.20;2.90;;;12.90;99.90;;;;;;4990173;28;20046;-73
2022/09/30 11:30:20;;;;;;;12.85;2.50;;;12.90;99.90;;;;;;4990648;28;20379;-73
2022/09/30 11:33:11;;;;;;;11.07;2.42;;;12.90;99.90;;;;;;4988874;28;20042;-74
2022/09/30 11:36:12;;;;;;;18.75;3.67;;;12.90;99.90;;;;;;4988675;28;20113;-73
2022/09/30 11:38:58;;;;;;;12.55;2.30;;;12.90;99.90;;;;;;4989502;28;20392;-73
2022/09/30 11:41:43;;;;;;;;;;;12.90;99.90;;;;;;4989005;28;20177;-72
2022/09/30 11:44:13;;;;;;;21.95;3.97;;;12.90;99.90;;;;;;4991650;28;19925;-73
2022/09/30 11:46:57;;;;;;;11.38;3.42;;;13.00;99.90;;;;;;4992992;28;20480;-72
2022/09/30 11:50:03;;;;;;;19.75;3.53;;;12.90;99.90;;;;;;4992373;28;20025;-72
2022/09/30 11:52:55;;;;;;;18.52;2.13;;;12.90;99.90;;;;;;4992288;28;20050;-73
2022/09/30 11:55:56;;;;;;;8.95;3.20;;;12.90;99.90;;;;;;4981103;28;20109;-73
2022/09/30 11:58:30;;;;;;;27.90;2.83;;;12.90;99.90;;;;;;4993245;28;20464;-74
2022/09/30 12:01:15;;;;;;;13.05;3.17;;;12.90;99.90;;;;;;4976595;28;20105;-73
2022/09/30 12:03:53;;;;;;;22.23;3.05;;;12.90;99.90;;;;;;4977995;28;20157;-74
2022/09/30 12:06:28;;;;;;;16.90;3.58;;;12.90;99.90;;;;;;4982379;28;20026;-74
2022/09/30 12:09:09;;;;;;;16.92;3.72;;;12.90;99.90;;;;;;5001274;28;20065;-74
2022/09/30 12:11:54;;;;;;;17.23;3.47;;;12.90;99.90;;;;;;4984883;28;20062;-74
2022/09/30 12:15:15;;;;;;;19.45;3.72;;;13.00;99.90;;;;;;4986777;28;20026;-72
2022/09/30 12:17:53;;;;;;;19.13;4.07;;;13.00;99.90;;;;;;4927482;29;20086;-74
2022/09/30 12:20:37;;;;;;;19.30;4.38;;;13.00;99.90;;;;;;4977162;28;20053;-74
2022/09/30 12:23:27;;;;;;;21.33;3.42;;;13.00;99.90;;;;;;4988696;28;20027;-74
2022/09/30 12:26:03;;;;;;;14.52;2.70;;;13.00;99.90;;;;;;4986241;28;20459;-74
2022/09/30 12:32:05;;;;;;;18.23;3.13;;;12.90;99.90;;;;;;4986342;28;20502;-74
2022/09/30 12:35:00;;;;;;;12.95;3.75;;;12.90;99.90;;;;;;4985198;28;20019;-73
2022/09/30 12:37:34;;;;;;;18.05;3.97;;;12.90;99.90;;;;;;4987070;28;20073;-73
2022/09/30 12:40:23;;;;;;;18.92;2.92;;;12.90;99.90;;;;;;4986339;28;20035;-73
2022/09/30 12:43:00;;;;;;;19.42;3.88;;;12.90;99.90;;;;;;4987077;28;20057;-74
2022/09/30 12:45:58;;;;;;;18.50;3.30;;;12.90;99.90;;;;;;4986935;28;20018;-75
2022/09/30 12:49:05;;;;;;;14.18;3.90;;;12.80;99.90;;;;;;4987468;28;20030;-73
2022/09/30 12:51:35;;;;;;;;;;;12.80;99.90;;;;;;4979795;28;20125;-74
2022/09/30 12:54:40;;;;;;;17.45;3.90;;;12.70;99.90;;;;;;5006832;28;19913;-74
2022/09/30 12:57:09;;;;;;;28.48;4.15;;;12.70;99.90;;;;;;4976123;28;20034;-73
2022/09/30 12:59:44;;;;;;;17.80;3.25;;;12.60;99.90;;;;;;5014832;28;20494;-73
2022/09/30 13:02:30;;;;;;;13.60;3.53;;;12.70;99.90;;;;;;5014923;28;20042;-74
2022/09/30 13:05:26;;;;;;;14.52;2.75;;;12.70;99.90;;;;;;4999609;28;20029;-74
2022/09/30 13:08:08;;;;;;;21.33;3.03;;;12.60;99.90;;;;;;5014828;28;20037;-73
2022/09/30 13:10:39;;;;;;;23.55;4.50;;;12.70;99.90;;;;;;4999567;28;20088;-75
2022/09/30 13:13:24;;;;;;;11.55;3.50;;;12.70;99.90;;;;;;5014615;28;20057;-74
2022/09/30 13:16:01;;;;;;;14.95;2.58;;;12.70;99.90;;;;;;5014706;28;20548;-74
2022/09/30 13:18:29;;;;;;;19.75;4.00;;;12.60;99.90;;;;;;5006906;28;20479;-74
2022/09/30 13:21:09;;;;;;;20.80;3.22;;;12.70;99.90;;;;;;4986062;28;20027;-77
2022/09/30 13:23:57;;;;;;;24.83;3.10;;;12.70;99.90;;;;;;4989123;28;20023;-78
2022/09/30 13:26:34;;;;;;;11.75;2.00;;;12.60;99.90;;;;;;5008675;28;20030;-76
2022/09/30 13:29:02;;;;;;;20.35;3.08;;;12.70;99.90;;;;;;5014367;28;20355;-77
2022/09/30 13:31:48;;;;;;;20.15;2.72;;;12.70;99.90;;;;;;5014084;28;20045;-77
2022/09/30 13:34:30;;;;;;;13.77;4.50;;;12.60;99.90;;;;;;5014300;28;20017;-77
2022/09/30 13:37:00;;;;;;;21.08;4.25;;;12.70;99.90;;;;;;4985364;28;20030;-76